createdAt,value
2022-10-04T00:01:47.038Z,4.89
2022-10-04T00:04:19.028Z,4.85
2022-10-04T00:06:54.631Z,4.88
2022-10-04T00:09:24.391Z,4.76
2022-10-04T00:11:54.696Z,4.73
2022-10-04T00:14:26.464Z,4.70
2022-10-04T00:16:54.804Z,4.65
2022-10-04T00:19:38.309Z,4.62
2022-10-04T00:22:19.098Z,4.60
2022-10-04T00:25:20.279Z,4.59
2022-10-04T00:28:24.589Z,4.59
2022-10-04T00:31:15.897Z,4.55
2022-10-04T00:33:44.297Z,4.55
2022-10-04T00:36:47.409Z,4.54
2022-10-04T00:39:26.387Z,4.50
2022-10-04T00:42:19.774Z,4.44
2022-10-04T00:44:52.018Z,4.47
2022-10-04T00:47:31.510Z,4.46
2022-10-04T00:50:07.508Z,4.44
2022-10-04T00:52:40.764Z,4.44
2022-10-04T00:55:10.869Z,4.44
2022-10-04T00:57:42.248Z,4.53
2022-10-04T01:00:13.248Z,4.44
2022-10-04T01:02:51.292Z,4.36
2022-10-04T01:05:21.400Z,4.35
2022-10-04T01:07:52.987Z,4.32
2022-10-04T01:10:32.935Z,4.29
2022-10-04T01:13:08.058Z,4.24
2022-10-04T01:15:43.287Z,4.25
2022-10-04T01:18:14.820Z,4.21
2022-10-04T01:20:52.892Z,4.24
2022-10-04T01:23:36.857Z,4.33
2022-10-04T01:26:05.649Z,4.33
2022-10-04T01:28:33.938Z,4.35
2022-10-04T01:31:01.117Z,4.29
2022-10-04T01:33:28.178Z,4.29
2022-10-04T01:35:55.171Z,4.34
2022-10-04T01:38:21.851Z,4.41
2022-10-04T01:40:54.895Z,4.40
2022-10-04T01:43:27.960Z,4.34
2022-10-04T01:46:01.228Z,4.31
2022-10-04T01:48:33.329Z,4.23
2022-10-04T01:51:05.657Z,4.18
2022-10-04T01:53:40.649Z,4.32
2022-10-04T01:56:12.951Z,4.37
2022-10-04T01:58:43.144Z,4.26
2022-10-04T02:01:13.705Z,4.26
2022-10-04T02:03:43.879Z,4.27
2022-10-04T02:06:12.836Z,4.24
2022-10-04T02:08:49.645Z,4.18
2022-10-04T02:11:21.473Z,4.23
2022-10-04T02:13:51.663Z,4.25
2022-10-04T02:16:22.122Z,4.28
2022-10-04T02:18:51.363Z,4.27
2022-10-04T02:21:19.908Z,4.25
2022-10-04T02:23:47.729Z,4.31
2022-10-04T02:26:14.588Z,4.26
2022-10-04T02:28:42.892Z,4.23
2022-10-04T02:31:28.652Z,4.18
2022-10-04T02:33:58.564Z,4.11
2022-10-04T02:36:28.639Z,4.10
2022-10-04T02:39:02.155Z,4.11
2022-10-04T02:41:33.910Z,4.17
2022-10-04T02:44:10.136Z,4.13
2022-10-04T02:46:46.785Z,4.11
2022-10-04T02:49:22.911Z,4.04
2022-10-04T02:51:54.492Z,3.98
2022-10-04T02:54:28.390Z,4.02
2022-10-04T02:56:55.609Z,4.08
2022-10-04T02:59:24.177Z,4.06
2022-10-04T03:01:53.695Z,4.15
2022-10-04T03:04:23.471Z,4.18
2022-10-04T03:06:51.637Z,4.18
2022-10-04T03:09:25.029Z,4.21
2022-10-04T03:11:54.689Z,4.18
2022-10-04T03:14:25.353Z,4.18
2022-10-04T03:16:55.661Z,4.16
2022-10-04T03:19:24.827Z,4.19
2022-10-04T03:21:55.222Z,4.21
2022-10-04T03:24:28.433Z,4.21
2022-10-04T03:26:57.126Z,4.21
2022-10-04T03:29:28.303Z,4.21
2022-10-04T03:31:59.753Z,4.17
2022-10-04T03:34:32.025Z,4.15
2022-10-04T03:37:00.968Z,4.17
2022-10-04T03:39:32.071Z,4.18
2022-10-04T03:41:59.859Z,4.20
2022-10-04T03:44:27.987Z,4.22
2022-10-04T03:46:54.968Z,4.21
2022-10-04T03:49:30.275Z,4.23
2022-10-04T03:51:58.835Z,4.22
2022-10-04T03:54:28.076Z,4.24
2022-10-04T03:56:56.885Z,4.27
2022-10-04T03:59:26.371Z,4.34
2022-10-04T04:02:06.733Z,4.39
2022-10-04T04:04:43.256Z,4.46
2022-10-04T04:07:14.457Z,4.51
2022-10-04T04:09:45.648Z,4.53
2022-10-04T04:12:18.129Z,4.41
2022-10-04T04:14:48.763Z,4.41
2022-10-04T04:17:35.946Z,4.42
2022-10-04T04:20:07.976Z,4.47
2022-10-04T04:22:36.382Z,4.50
2022-10-04T04:25:08.314Z,4.48
2022-10-04T04:27:40.033Z,4.55
2022-10-04T04:30:08.980Z,4.56
2022-10-04T04:32:41.288Z,4.57
2022-10-04T04:35:22.007Z,4.55
2022-10-04T04:38:04.475Z,4.56
2022-10-04T04:40:31.450Z,4.58
2022-10-04T04:43:00.204Z,4.61
2022-10-04T04:45:30.914Z,4.63
2022-10-04T04:48:01.287Z,4.64
2022-10-04T04:50:31.718Z,4.73
2022-10-04T04:53:01.324Z,4.82
2022-10-04T04:55:44.680Z,4.88
2022-10-04T04:58:22.192Z,4.86
2022-10-04T05:00:57.211Z,4.88
2022-10-04T05:03:26.333Z,4.91
2022-10-04T05:05:54.821Z,4.86
2022-10-04T05:08:24.292Z,4.84
2022-10-04T05:11:01.217Z,4.88
2022-10-04T05:13:34.262Z,4.89
2022-10-04T05:16:01.979Z,4.86
2022-10-04T05:18:32.181Z,4.91
2022-10-04T05:21:04.932Z,4.87
2022-10-04T05:23:32.492Z,4.94
2022-10-04T05:26:02.243Z,4.98
2022-10-04T05:28:29.791Z,4.98
2022-10-04T05:31:21.724Z,5.07
2022-10-04T05:33:51.844Z,5.06
2022-10-04T05:36:50.906Z,5.17
2022-10-04T05:39:25.222Z,5.22
2022-10-04T05:42:01.493Z,5.23
2022-10-04T05:44:31.719Z,5.25
2022-10-04T05:47:01.212Z,5.32
2022-10-04T05:49:34.689Z,5.29
2022-10-04T05:52:04.196Z,5.31
2022-10-04T05:54:35.649Z,5.33
2022-10-04T05:57:15.911Z,5.38
2022-10-04T06:00:01.907Z,5.46
2022-10-04T06:02:46.712Z,5.51
2022-10-04T06:05:23.578Z,5.50
2022-10-04T06:08:00.354Z,5.53
2022-10-04T06:10:51.354Z,5.55
2022-10-04T06:13:39.258Z,5.61
2022-10-04T06:16:17.728Z,5.69
2022-10-04T06:19:13.643Z,5.67
2022-10-04T06:21:56.164Z,5.69
2022-10-04T06:24:27.536Z,5.79
2022-10-04T06:26:59.997Z,5.82
2022-10-04T06:29:32.536Z,5.88
2022-10-04T06:32:28.122Z,5.93
2022-10-04T06:35:10.999Z,6.01
2022-10-04T06:38:06.715Z,6.07
2022-10-04T06:40:49.832Z,6.09
2022-10-04T06:43:36.689Z,6.15
2022-10-04T06:46:15.492Z,6.18
2022-10-04T06:49:07.638Z,6.27
2022-10-04T06:51:53.441Z,6.34
2022-10-04T06:54:38.787Z,6.39
2022-10-04T06:57:34.729Z,6.46
2022-10-04T07:00:09.865Z,6.59
2022-10-04T07:02:44.399Z,6.68
2022-10-04T07:05:30.227Z,6.70
2022-10-04T07:08:06.797Z,6.76
2022-10-04T07:10:41.085Z,6.85
2022-10-04T07:13:31.593Z,6.94
2022-10-04T07:16:04.243Z,6.93
2022-10-04T07:18:36.586Z,7.05
2022-10-04T07:21:08.612Z,-147.88
2022-10-04T07:23:43.689Z,-147.88
2022-10-04T07:26:22.794Z,-147.88
2022-10-04T07:29:09.578Z,-147.88
2022-10-04T07:31:38.570Z,-147.88
2022-10-04T07:34:15.577Z,-147.88
2022-10-04T07:36:49.285Z,7.61
2022-10-04T07:39:20.032Z,7.64
2022-10-04T07:41:53.569Z,7.68
2022-10-04T07:44:34.561Z,7.71
2022-10-04T07:47:06.244Z,7.86
2022-10-04T07:49:38.768Z,7.84
2022-10-04T07:52:51.106Z,7.97
2022-10-04T07:55:24.006Z,8.19
2022-10-04T07:58:07.440Z,8.31
2022-10-04T08:00:48.791Z,-147.88
2022-10-04T08:03:41.820Z,-147.88
2022-10-04T08:06:17.060Z,-147.88
2022-10-04T08:09:16.972Z,9.18
2022-10-04T08:11:51.203Z,9.28
2022-10-04T08:14:28.165Z,-147.88
2022-10-04T08:17:10.799Z,-147.88
2022-10-04T08:19:51.561Z,-147.88
2022-10-04T08:22:27.592Z,-147.88
2022-10-04T08:25:03.873Z,-147.88
2022-10-04T08:27:39.720Z,-147.88
2022-10-04T08:30:16.278Z,-147.88
2022-10-04T08:33:03.873Z,-147.88
2022-10-04T08:35:36.601Z,-147.88
2022-10-04T08:38:34.939Z,-147.88
2022-10-04T08:41:34.685Z,-147.88
2022-10-04T08:44:49.848Z,-147.88
2022-10-04T08:47:33.675Z,-147.88
2022-10-04T08:50:43.125Z,-147.88
2022-10-04T08:53:43.770Z,-147.88
2022-10-04T08:56:19.297Z,-147.88
2022-10-04T08:59:17.594Z,-147.88
2022-10-04T09:02:21.030Z,-147.88
2022-10-04T09:05:16.701Z,-147.88
2022-10-04T14:36:40.807Z,-147.88
2022-10-04T14:39:36.010Z,-147.88
2022-10-04T14:42:24.568Z,-147.88
2022-10-04T14:45:15.413Z,-147.88
2022-10-04T14:48:20.355Z,-147.88
2022-10-04T14:51:01.229Z,-147.88
2022-10-04T14:53:37.194Z,-147.88
2022-10-04T14:56:45.590Z,-147.88
2022-10-04T14:59:26.118Z,-147.88
2022-10-04T15:02:19.944Z,-147.88
2022-10-04T15:05:12.872Z,-147.88
2022-10-04T15:07:46.906Z,-147.88
2022-10-04T15:10:20.191Z,-147.88
2022-10-04T15:13:11.115Z,-147.88
2022-10-04T15:15:57.239Z,-147.88
2022-10-04T15:18:37.808Z,-147.88
2022-10-04T15:21:20.397Z,-147.88
2022-10-04T15:23:54.706Z,-147.88
2022-10-04T15:26:54.724Z,-147.88
2022-10-04T15:29:28.132Z,-147.88
2022-10-04T15:32:07.361Z,-147.88
2022-10-04T15:34:44.173Z,-147.88
2022-10-04T15:37:20.297Z,-147.88
2022-10-04T15:40:18.964Z,-147.88
2022-10-04T15:43:15.289Z,-147.88
2022-10-04T15:46:41.563Z,-147.88
2022-10-04T15:49:24.962Z,-147.88
2022-10-04T15:52:14.454Z,-147.88
2022-10-04T15:54:52.349Z,-147.88
2022-10-04T15:57:32.173Z,-147.88
2022-10-04T16:00:08.516Z,-147.88
2022-10-04T16:02:55.672Z,-147.88
2022-10-04T16:05:27.699Z,-147.88
2022-10-04T16:08:22.502Z,-147.88
2022-10-04T16:11:25.009Z,-147.88
2022-10-04T16:14:06.837Z,-147.88
2022-10-04T16:17:02.642Z,-147.88
2022-10-04T16:19:43.879Z,-147.88
2022-10-04T16:22:16.007Z,-147.88
2022-10-04T16:24:51.385Z,-147.88
2022-10-04T16:27:43.033Z,-147.88
2022-10-04T16:30:27.832Z,-147.88
2022-10-04T16:33:25.900Z,-147.88
2022-10-04T16:36:08.643Z,-147.88
2022-10-04T16:39:04.033Z,-147.88
2022-10-04T16:41:37.382Z,-147.88
2022-10-04T16:44:10.521Z,-147.88
2022-10-04T16:46:45.077Z,-147.88
2022-10-04T16:49:24.869Z,-147.88
2022-10-04T16:52:12.368Z,-147.88
2022-10-04T16:55:10.198Z,-147.88
2022-10-04T16:57:38.218Z,-147.88
2022-10-04T17:00:33.739Z,-147.88
2022-10-04T17:03:15.107Z,-147.88
2022-10-04T17:05:56.601Z,-147.88
2022-10-04T17:08:43.298Z,-147.88
2022-10-04T17:11:58.360Z,-147.88
2022-10-04T17:14:42.747Z,-147.88
2022-10-04T17:17:21.775Z,-147.88
2022-10-04T17:19:52.964Z,-147.88
2022-10-04T17:22:33.562Z,-147.88
2022-10-04T17:25:15.541Z,-147.88
2022-10-04T17:27:49.795Z,-147.88
2022-10-04T17:30:21.582Z,-147.88
2022-10-04T17:33:18.103Z,-147.88
